sensor_id;sensor_type;location;lat;lon;timestamp;pressure;altitude;pressure_sealevel;temperature;humidity
57412;BME280;43247;52.828;-8.980;2024-03-08T00:00:30;101032.70;;;6.86;82.17
57412;BME280;43247;52.828;-8.980;2024-03-08T00:01:30;101030.63;;;6.89;82.10
57412;BME280;43247;52.828;-8.980;2024-03-08T00:02:31;101027.89;;;6.88;82.06
57412;BME280;43247;52.828;-8.980;2024-03-08T00:03:32;101027.90;;;6.88;82.06
57412;BME280;43247;52.828;-8.980;2024-03-08T00:04:32;101027.56;;;6.85;82.23
57412;BME280;43247;52.828;-8.980;2024-03-08T00:05:32;101026.45;;;6.86;82.22
57412;BME280;43247;52.828;-8.980;2024-03-08T00:06:33;101025.96;;;6.85;82.31
57412;BME280;43247;52.828;-8.980;2024-03-08T00:07:33;101021.76;;;6.82;82.42
57412;BME280;43247;52.828;-8.980;2024-03-08T00:08:34;101017.77;;;6.82;82.29
57412;BME280;43247;52.828;-8.980;2024-03-08T00:09:34;101014.96;;;6.82;82.29
57412;BME280;43247;52.828;-8.980;2024-03-08T00:10:35;101015.33;;;6.81;82.24
57412;BME280;43247;52.828;-8.980;2024-03-08T00:11:36;101013.87;;;6.80;82.27
57412;BME280;43247;52.828;-8.980;2024-03-08T00:12:37;101012.39;;;6.82;82.19
57412;BME280;43247;52.828;-8.980;2024-03-08T00:13:37;101009.93;;;6.78;82.22
57412;BME280;43247;52.828;-8.980;2024-03-08T00:14:37;101007.61;;;6.79;82.31
57412;BME280;43247;52.828;-8.980;2024-03-08T00:15:37;101003.95;;;6.78;82.34
57412;BME280;43247;52.828;-8.980;2024-03-08T00:16:38;101009.23;;;6.79;82.30
57412;BME280;43247;52.828;-8.980;2024-03-08T00:17:38;101009.09;;;6.77;82.38
57412;BME280;43247;52.828;-8.980;2024-03-08T00:18:39;101011.32;;;6.77;82.44
57412;BME280;43247;52.828;-8.980;2024-03-08T00:19:39;101006.76;;;6.76;82.51
57412;BME280;43247;52.828;-8.980;2024-03-08T00:20:39;101007.75;;;6.76;82.52
57412;BME280;43247;52.828;-8.980;2024-03-08T00:21:40;101005.76;;;6.77;82.42
57412;BME280;43247;52.828;-8.980;2024-03-08T00:22:40;101006.66;;;6.75;82.53
57412;BME280;43247;52.828;-8.980;2024-03-08T00:23:41;101001.99;;;6.75;82.42
57412;BME280;43247;52.828;-8.980;2024-03-08T00:24:41;101001.53;;;6.75;82.44
57412;BME280;43247;52.828;-8.980;2024-03-08T00:25:41;100998.60;;;6.74;82.47
57412;BME280;43247;52.828;-8.980;2024-03-08T00:26:42;100991.64;;;6.73;82.45
57412;BME280;43247;52.828;-8.980;2024-03-08T00:27:43;100989.49;;;6.74;82.51
57412;BME280;43247;52.828;-8.980;2024-03-08T00:28:43;100991.07;;;6.75;82.42
57412;BME280;43247;52.828;-8.980;2024-03-08T00:29:44;100990.53;;;6.73;82.54
57412;BME280;43247;52.828;-8.980;2024-03-08T00:30:44;100986.70;;;6.72;82.59
57412;BME280;43247;52.828;-8.980;2024-03-08T00:31:44;100988.72;;;6.74;82.52
57412;BME280;43247;52.828;-8.980;2024-03-08T00:32:45;100979.22;;;6.74;82.53
57412;BME280;43247;52.828;-8.980;2024-03-08T00:33:46;100983.30;;;6.74;82.57
57412;BME280;43247;52.828;-8.980;2024-03-08T00:34:46;100979.40;;;6.74;82.54
57412;BME280;43247;52.828;-8.980;2024-03-08T00:35:46;100977.91;;;6.74;82.61
57412;BME280;43247;52.828;-8.980;2024-03-08T00:36:46;100973.85;;;6.75;82.62
57412;BME280;43247;52.828;-8.980;2024-03-08T00:37:47;100971.80;;;6.73;82.74
57412;BME280;43247;52.828;-8.980;2024-03-08T00:38:48;100969.99;;;6.76;82.60
57412;BME280;43247;52.828;-8.980;2024-03-08T00:39:48;100965.80;;;6.76;82.52
57412;BME280;43247;52.828;-8.980;2024-03-08T00:40:48;100966.21;;;6.75;82.55
57412;BME280;43247;52.828;-8.980;2024-03-08T00:41:49;100964.01;;;6.75;82.61
57412;BME280;43247;52.828;-8.980;2024-03-08T00:42:49;100968.35;;;6.75;82.73
57412;BME280;43247;52.828;-8.980;2024-03-08T00:43:50;100965.77;;;6.75;82.84
57412;BME280;43247;52.828;-8.980;2024-03-08T00:44:50;100963.25;;;6.74;82.93
57412;BME280;43247;52.828;-8.980;2024-03-08T00:45:51;100957.46;;;6.73;82.89
57412;BME280;43247;52.828;-8.980;2024-03-08T00:46:51;100963.90;;;6.77;82.83
57412;BME280;43247;52.828;-8.980;2024-03-08T00:47:52;100956.94;;;6.79;82.62
57412;BME280;43247;52.828;-8.980;2024-03-08T00:48:52;100954.79;;;6.76;82.74
57412;BME280;43247;52.828;-8.980;2024-03-08T00:49:53;100955.27;;;6.77;82.81
57412;BME280;43247;52.828;-8.980;2024-03-08T00:50:54;100953.04;;;6.79;82.67
57412;BME280;43247;52.828;-8.980;2024-03-08T00:51:54;100951.09;;;6.77;82.77
57412;BME280;43247;52.828;-8.980;2024-03-08T00:52:55;100947.56;;;6.78;82.81
57412;BME280;43247;52.828;-8.980;2024-03-08T00:53:56;100945.68;;;6.77;82.83
57412;BME280;43247;52.828;-8.980;2024-03-08T00:54:56;100944.58;;;6.78;82.84
57412;BME280;43247;52.828;-8.980;2024-03-08T00:55:56;100947.73;;;6.79;82.97
57412;BME280;43247;52.828;-8.980;2024-03-08T00:56:57;100942.51;;;6.82;82.82
57412;BME280;43247;52.828;-8.980;2024-03-08T00:57:57;100944.39;;;6.79;82.94
57412;BME280;43247;52.828;-8.980;2024-03-08T00:58:57;100946.87;;;6.79;83.02
57412;BME280;43247;52.828;-8.980;2024-03-08T00:59:58;100946.56;;;6.82;82.89
57412;BME280;43247;52.828;-8.980;2024-03-08T01:00:58;100945.32;;;6.79;83.01
57412;BME280;43247;52.828;-8.980;2024-03-08T01:01:58;100943.03;;;6.76;83.21
57412;BME280;43247;52.828;-8.980;2024-03-08T01:02:58;100939.86;;;6.78;83.15
57412;BME280;43247;52.828;-8.980;2024-03-08T01:03:58;100939.32;;;6.76;83.32
57412;BME280;43247;52.828;-8.980;2024-03-08T01:04:58;100940.24;;;6.79;83.25
57412;BME280;43247;52.828;-8.980;2024-03-08T01:05:59;100938.41;;;6.80;83.15
57412;BME280;43247;52.828;-8.980;2024-03-08T01:06:59;100939.89;;;6.81;83.12
57412;BME280;43247;52.828;-8.980;2024-03-08T01:08:00;100940.10;;;6.80;83.18
57412;BME280;43247;52.828;-8.980;2024-03-08T01:09:00;100933.71;;;6.82;83.13
57412;BME280;43247;52.828;-8.980;2024-03-08T01:10:01;100936.50;;;6.83;83.12
57412;BME280;43247;52.828;-8.980;2024-03-08T01:11:01;100932.29;;;6.81;83.21
57412;BME280;43247;52.828;-8.980;2024-03-08T01:12:02;100927.93;;;6.80;83.33
57412;BME280;43247;52.828;-8.980;2024-03-08T01:13:02;100930.99;;;6.82;83.28
57412;BME280;43247;52.828;-8.980;2024-03-08T01:14:03;100929.04;;;6.81;83.30
57412;BME280;43247;52.828;-8.980;2024-03-08T01:15:04;100931.00;;;6.81;83.30
57412;BME280;43247;52.828;-8.980;2024-03-08T01:16:05;100927.33;;;6.82;83.28
57412;BME280;43247;52.828;-8.980;2024-03-08T01:17:04;100926.26;;;6.85;83.22
57412;BME280;43247;52.828;-8.980;2024-03-08T01:18:04;100922.39;;;6.83;83.29
57412;BME280;43247;52.828;-8.980;2024-03-08T01:19:04;100921.00;;;6.81;83.42
57412;BME280;43247;52.828;-8.980;2024-03-08T01:20:06;100916.92;;;6.82;83.45
57412;BME280;43247;52.828;-8.980;2024-03-08T01:21:05;100917.24;;;6.82;83.48
57412;BME280;43247;52.828;-8.980;2024-03-08T01:22:06;100921.62;;;6.83;83.38
57412;BME280;43247;52.828;-8.980;2024-03-08T01:23:06;100918.08;;;6.85;83.32
57412;BME280;43247;52.828;-8.980;2024-03-08T01:24:06;100912.46;;;6.84;83.32
57412;BME280;43247;52.828;-8.980;2024-03-08T01:25:07;100915.71;;;6.81;83.50
57412;BME280;43247;52.828;-8.980;2024-03-08T01:26:07;100911.15;;;6.84;83.41
57412;BME280;43247;52.828;-8.980;2024-03-08T01:27:07;100907.86;;;6.87;83.35
57412;BME280;43247;52.828;-8.980;2024-03-08T01:28:08;100908.14;;;6.83;83.48
57412;BME280;43247;52.828;-8.980;2024-03-08T01:29:08;100904.06;;;6.81;83.62
57412;BME280;43247;52.828;-8.980;2024-03-08T01:30:09;100904.28;;;6.84;83.61
57412;BME280;43247;52.828;-8.980;2024-03-08T01:31:08;100904.54;;;6.86;83.55
57412;BME280;43247;52.828;-8.980;2024-03-08T01:32:09;100902.74;;;6.85;83.65
57412;BME280;43247;52.828;-8.980;2024-03-08T01:33:09;100897.35;;;6.85;83.68
57412;BME280;43247;52.828;-8.980;2024-03-08T01:34:10;100899.00;;;6.83;83.81
57412;BME280;43247;52.828;-8.980;2024-03-08T01:35:10;100896.12;;;6.84;83.79
57412;BME280;43247;52.828;-8.980;2024-03-08T01:36:11;100898.04;;;6.84;83.88
57412;BME280;43247;52.828;-8.980;2024-03-08T01:37:11;100899.57;;;6.85;83.83
57412;BME280;43247;52.828;-8.980;2024-03-08T01:38:11;100895.81;;;6.84;83.86
57412;BME280;43247;52.828;-8.980;2024-03-08T01:39:11;100894.06;;;6.84;83.91
57412;BME280;43247;52.828;-8.980;2024-03-08T01:40:12;100895.29;;;6.85;83.90
57412;BME280;43247;52.828;-8.980;2024-03-08T01:41:12;100896.37;;;6.88;83.83
57412;BME280;43247;52.828;-8.980;2024-03-08T01:42:13;100896.85;;;6.88;83.82
57412;BME280;43247;52.828;-8.980;2024-03-08T01:43:18;100890.94;;;6.89;83.69
57412;BME280;43247;52.828;-8.980;2024-03-08T01:44:14;100887.89;;;6.89;83.75
57412;BME280;43247;52.828;-8.980;2024-03-08T01:45:15;100887.52;;;6.89;83.79
57412;BME280;43247;52.828;-8.980;2024-03-08T01:46:18;100885.25;;;6.88;83.84
57412;BME280;43247;52.828;-8.980;2024-03-08T01:47:15;100884.84;;;6.88;83.85
57412;BME280;43247;52.828;-8.980;2024-03-08T01:48:16;100880.68;;;6.89;83.83
57412;BME280;43247;52.828;-8.980;2024-03-08T01:49:16;100876.57;;;6.87;83.94
57412;BME280;43247;52.828;-8.980;2024-03-08T01:50:16;100880.07;;;6.89;84.02
57412;BME280;43247;52.828;-8.980;2024-03-08T01:51:17;100877.00;;;6.92;83.83
57412;BME280;43247;52.828;-8.980;2024-03-08T01:52:18;100870.60;;;6.91;83.87
57412;BME280;43247;52.828;-8.980;2024-03-08T01:53:19;100868.41;;;6.91;83.93
57412;BME280;43247;52.828;-8.980;2024-03-08T01:54:20;100865.37;;;6.89;84.00
57412;BME280;43247;52.828;-8.980;2024-03-08T01:55:19;100863.60;;;6.89;84.02
57412;BME280;43247;52.828;-8.980;2024-03-08T01:56:20;100860.69;;;6.92;83.94
57412;BME280;43247;52.828;-8.980;2024-03-08T01:57:20;100858.91;;;6.92;83.93
57412;BME280;43247;52.828;-8.980;2024-03-08T01:58:21;100859.08;;;6.90;83.99
57412;BME280;43247;52.828;-8.980;2024-03-08T01:59:21;100855.55;;;6.91;83.96
57412;BME280;43247;52.828;-8.980;2024-03-08T02:00:21;100852.28;;;6.90;84.08
57412;BME280;43247;52.828;-8.980;2024-03-08T02:01:22;100850.41;;;6.90;84.13
57412;BME280;43247;52.828;-8.980;2024-03-08T02:02:23;100850.37;;;6.94;84.02
57412;BME280;43247;52.828;-8.980;2024-03-08T02:03:23;100848.26;;;6.93;84.04
57412;BME280;43247;52.828;-8.980;2024-03-08T02:04:24;100848.68;;;6.96;83.90
57412;BME280;43247;52.828;-8.980;2024-03-08T02:05:24;100836.46;;;6.95;83.95
57412;BME280;43247;52.828;-8.980;2024-03-08T02:06:24;100839.25;;;6.94;84.08
57412;BME280;43247;52.828;-8.980;2024-03-08T02:07:25;100835.65;;;6.95;84.02
57412;BME280;43247;52.828;-8.980;2024-03-08T02:08:26;100836.17;;;6.92;84.09
57412;BME280;43247;52.828;-8.980;2024-03-08T02:09:26;100830.41;;;6.91;84.18
57412;BME280;43247;52.828;-8.980;2024-03-08T02:10:27;100832.64;;;6.91;84.28
57412;BME280;43247;52.828;-8.980;2024-03-08T02:11:27;100825.18;;;6.93;84.05
57412;BME280;43247;52.828;-8.980;2024-03-08T02:12:27;100822.05;;;6.92;84.12
57412;BME280;43247;52.828;-8.980;2024-03-08T02:13:28;100822.75;;;6.93;84.12
57412;BME280;43247;52.828;-8.980;2024-03-08T02:14:28;100820.53;;;6.90;84.20
57412;BME280;43247;52.828;-8.980;2024-03-08T02:16:29;100817.20;;;6.90;84.18
57412;BME280;43247;52.828;-8.980;2024-03-08T02:17:29;100811.81;;;6.92;84.09
57412;BME280;43247;52.828;-8.980;2024-03-08T02:18:31;100807.30;;;6.91;84.05
57412;BME280;43247;52.828;-8.980;2024-03-08T02:19:30;100806.96;;;6.90;84.07
57412;BME280;43247;52.828;-8.980;2024-03-08T02:20:31;100807.21;;;6.90;84.08
57412;BME280;43247;52.828;-8.980;2024-03-08T02:21:32;100807.88;;;6.90;84.00
57412;BME280;43247;52.828;-8.980;2024-03-08T02:22:32;100805.47;;;6.91;83.92
57412;BME280;43247;52.828;-8.980;2024-03-08T02:23:33;100805.11;;;6.93;83.78
57412;BME280;43247;52.828;-8.980;2024-03-08T02:24:33;100801.96;;;6.90;83.92
57412;BME280;43247;52.828;-8.980;2024-03-08T02:25:33;100798.20;;;6.89;83.91
57412;BME280;43247;52.828;-8.980;2024-03-08T02:26:34;100797.66;;;6.90;83.86
57412;BME280;43247;52.828;-8.980;2024-03-08T02:27:34;100796.17;;;6.87;83.89
57412;BME280;43247;52.828;-8.980;2024-03-08T02:28:35;100792.55;;;6.88;83.88
57412;BME280;43247;52.828;-8.980;2024-03-08T02:29:37;100791.68;;;6.89;83.80
57412;BME280;43247;52.828;-8.980;2024-03-08T02:30:36;100788.91;;;6.87;83.91
57412;BME280;43247;52.828;-8.980;2024-03-08T02:31:37;100788.67;;;6.89;83.91
57412;BME280;43247;52.828;-8.980;2024-03-08T02:32:37;100788.84;;;6.86;83.93
57412;BME280;43247;52.828;-8.980;2024-03-08T02:33:37;100786.61;;;6.87;83.84
57412;BME280;43247;52.828;-8.980;2024-03-08T02:34:38;100786.76;;;6.86;83.87
57412;BME280;43247;52.828;-8.980;2024-03-08T02:35:38;100779.14;;;6.85;83.89
57412;BME280;43247;52.828;-8.980;2024-03-08T02:36:38;100782.03;;;6.84;83.94
57412;BME280;43247;52.828;-8.980;2024-03-08T02:37:38;100781.67;;;6.88;83.72
57412;BME280;43247;52.828;-8.980;2024-03-08T02:38:39;100778.46;;;6.85;83.73
57412;BME280;43247;52.828;-8.980;2024-03-08T02:39:40;100780.69;;;6.85;83.70
57412;BME280;43247;52.828;-8.980;2024-03-08T02:40:40;100777.64;;;6.85;83.67
57412;BME280;43247;52.828;-8.980;2024-03-08T02:41:40;100774.19;;;6.84;83.68
57412;BME280;43247;52.828;-8.980;2024-03-08T02:42:40;100770.67;;;6.85;83.62
57412;BME280;43247;52.828;-8.980;2024-03-08T02:43:40;100768.95;;;6.84;83.68
57412;BME280;43247;52.828;-8.980;2024-03-08T02:44:42;100769.98;;;6.86;83.82
57412;BME280;43247;52.828;-8.980;2024-03-08T02:45:41;100767.33;;;6.90;83.68
57412;BME280;43247;52.828;-8.980;2024-03-08T02:46:41;100761.14;;;6.91;83.55
57412;BME280;43247;52.828;-8.980;2024-03-08T02:47:42;100760.86;;;6.95;83.33
57412;BME280;43247;52.828;-8.980;2024-03-08T02:48:42;100760.01;;;6.94;83.23
57412;BME280;43247;52.828;-8.980;2024-03-08T02:49:43;100757.20;;;6.93;83.23
57412;BME280;43247;52.828;-8.980;2024-03-08T02:50:44;100757.75;;;6.95;83.17
57412;BME280;43247;52.828;-8.980;2024-03-08T02:51:44;100754.42;;;6.97;83.12
57412;BME280;43247;52.828;-8.980;2024-03-08T02:52:44;100751.58;;;6.97;83.10
57412;BME280;43247;52.828;-8.980;2024-03-08T02:53:45;100749.39;;;6.96;83.08
57412;BME280;43247;52.828;-8.980;2024-03-08T02:54:46;100749.23;;;6.96;83.06
57412;BME280;43247;52.828;-8.980;2024-03-08T02:55:46;100749.96;;;6.94;83.11
57412;BME280;43247;52.828;-8.980;2024-03-08T02:56:47;100747.43;;;6.94;83.04
57412;BME280;43247;52.828;-8.980;2024-03-08T02:57:47;100750.35;;;6.94;83.04
57412;BME280;43247;52.828;-8.980;2024-03-08T02:58:47;100748.55;;;6.93;83.09
57412;BME280;43247;52.828;-8.980;2024-03-08T02:59:48;100745.72;;;6.94;83.06
57412;BME280;43247;52.828;-8.980;2024-03-08T03:00:49;100748.19;;;6.93;83.04
57412;BME280;43247;52.828;-8.980;2024-03-08T03:01:49;100747.65;;;6.94;83.00
57412;BME280;43247;52.828;-8.980;2024-03-08T03:02:50;100748.55;;;6.93;83.07
57412;BME280;43247;52.828;-8.980;2024-03-08T03:03:50;100745.59;;;6.92;83.05
57412;BME280;43247;52.828;-8.980;2024-03-08T03:04:51;100744.09;;;6.92;82.99
57412;BME280;43247;52.828;-8.980;2024-03-08T03:05:51;100739.55;;;6.92;83.00
57412;BME280;43247;52.828;-8.980;2024-03-08T03:06:51;100738.70;;;6.91;83.01
57412;BME280;43247;52.828;-8.980;2024-03-08T03:07:52;100735.96;;;6.93;82.81
57412;BME280;43247;52.828;-8.980;2024-03-08T03:08:52;100732.44;;;6.93;82.94
57412;BME280;43247;52.828;-8.980;2024-03-08T03:09:52;100733.32;;;6.91;82.93
57412;BME280;43247;52.828;-8.980;2024-03-08T03:10:52;100731.77;;;6.91;82.95
57412;BME280;43247;52.828;-8.980;2024-03-08T03:11:53;100729.14;;;6.90;83.02
57412;BME280;43247;52.828;-8.980;2024-03-08T03:12:53;100729.16;;;6.92;82.97
57412;BME280;43247;52.828;-8.980;2024-03-08T03:13:54;100728.80;;;6.91;83.04
57412;BME280;43247;52.828;-8.980;2024-03-08T03:14:55;100722.83;;;6.92;83.00
57412;BME280;43247;52.828;-8.980;2024-03-08T03:15:55;100721.77;;;6.89;83.17
57412;BME280;43247;52.828;-8.980;2024-03-08T03:16:55;100718.88;;;6.90;83.18
57412;BME280;43247;52.828;-8.980;2024-03-08T03:17:55;100717.66;;;6.91;83.22
57412;BME280;43247;52.828;-8.980;2024-03-08T03:18:56;100716.84;;;6.90;83.27
57412;BME280;43247;52.828;-8.980;2024-03-08T03:19:56;100715.62;;;6.90;83.30
57412;BME280;43247;52.828;-8.980;2024-03-08T03:20:57;100712.44;;;6.91;83.30
57412;BME280;43247;52.828;-8.980;2024-03-08T03:21:57;100710.72;;;6.90;83.33
57412;BME280;43247;52.828;-8.980;2024-03-08T03:22:58;100708.24;;;6.91;83.34
57412;BME280;43247;52.828;-8.980;2024-03-08T03:23:58;100708.32;;;6.92;83.27
57412;BME280;43247;52.828;-8.980;2024-03-08T03:24:58;100707.39;;;6.92;83.33
57412;BME280;43247;52.828;-8.980;2024-03-08T03:25:58;100707.66;;;6.91;83.38
57412;BME280;43247;52.828;-8.980;2024-03-08T03:26:59;100709.17;;;6.93;83.37
57412;BME280;43247;52.828;-8.980;2024-03-08T03:28:00;100706.64;;;6.91;83.46
57412;BME280;43247;52.828;-8.980;2024-03-08T03:29:00;100703.99;;;6.91;83.49
57412;BME280;43247;52.828;-8.980;2024-03-08T03:30:00;100699.09;;;6.92;83.40
57412;BME280;43247;52.828;-8.980;2024-03-08T03:31:01;100699.28;;;6.93;83.43
57412;BME280;43247;52.828;-8.980;2024-03-08T03:32:01;100694.70;;;6.92;83.51
57412;BME280;43247;52.828;-8.980;2024-03-08T03:33:03;100691.71;;;6.92;83.52
57412;BME280;43247;52.828;-8.980;2024-03-08T03:34:03;100691.40;;;6.91;83.59
57412;BME280;43247;52.828;-8.980;2024-03-08T03:35:03;100693.05;;;6.92;83.55
57412;BME280;43247;52.828;-8.980;2024-03-08T03:36:04;100688.92;;;6.93;83.53
57412;BME280;43247;52.828;-8.980;2024-03-08T03:37:05;100685.36;;;6.91;83.63
57412;BME280;43247;52.828;-8.980;2024-03-08T03:38:05;100683.70;;;6.91;83.70
57412;BME280;43247;52.828;-8.980;2024-03-08T03:39:05;100680.19;;;6.92;83.72
57412;BME280;43247;52.828;-8.980;2024-03-08T03:40:06;100680.96;;;6.92;83.75
57412;BME280;43247;52.828;-8.980;2024-03-08T03:41:06;100680.65;;;6.93;83.76
57412;BME280;43247;52.828;-8.980;2024-03-08T03:42:07;100679.33;;;6.94;83.74
57412;BME280;43247;52.828;-8.980;2024-03-08T03:43:07;100679.04;;;6.94;83.75
57412;BME280;43247;52.828;-8.980;2024-03-08T03:44:08;100679.84;;;6.93;83.83
57412;BME280;43247;52.828;-8.980;2024-03-08T03:45:08;100676.39;;;6.94;83.87
57412;BME280;43247;52.828;-8.980;2024-03-08T03:46:08;100674.01;;;6.94;83.92
57412;BME280;43247;52.828;-8.980;2024-03-08T03:47:09;100673.72;;;6.93;83.98
57412;BME280;43247;52.828;-8.980;2024-03-08T03:48:09;100674.82;;;6.93;84.01
57412;BME280;43247;52.828;-8.980;2024-03-08T03:49:09;100673.65;;;6.96;83.89
57412;BME280;43247;52.828;-8.980;2024-03-08T03:50:10;100674.36;;;6.94;83.99
57412;BME280;43247;52.828;-8.980;2024-03-08T03:51:10;100675.79;;;6.94;83.99
57412;BME280;43247;52.828;-8.980;2024-03-08T03:52:11;100666.68;;;6.96;84.02
57412;BME280;43247;52.828;-8.980;2024-03-08T03:53:11;100672.63;;;6.98;83.90
57412;BME280;43247;52.828;-8.980;2024-03-08T03:54:12;100669.57;;;6.94;84.06
57412;BME280;43247;52.828;-8.980;2024-03-08T03:55:13;100670.89;;;6.96;84.09
57412;BME280;43247;52.828;-8.980;2024-03-08T03:56:13;100668.63;;;6.96;84.09
57412;BME280;43247;52.828;-8.980;2024-03-08T03:57:13;100672.22;;;6.96;84.09
57412;BME280;43247;52.828;-8.980;2024-03-08T03:58:14;100670.69;;;6.95;84.14
57412;BME280;43247;52.828;-8.980;2024-03-08T03:59:14;100670.56;;;6.98;84.20
57412;BME280;43247;52.828;-8.980;2024-03-08T04:00:14;100665.85;;;7.02;84.14
57412;BME280;43247;52.828;-8.980;2024-03-08T04:01:15;100664.47;;;7.03;84.14
57412;BME280;43247;52.828;-8.980;2024-03-08T04:02:14;100664.25;;;7.05;84.07
57412;BME280;43247;52.828;-8.980;2024-03-08T04:03:15;100659.18;;;7.05;84.04
57412;BME280;43247;52.828;-8.980;2024-03-08T04:04:16;100660.08;;;7.05;84.11
57412;BME280;43247;52.828;-8.980;2024-03-08T04:05:16;100657.19;;;7.08;83.97
57412;BME280;43247;52.828;-8.980;2024-03-08T04:06:16;100660.68;;;7.12;83.88
57412;BME280;43247;52.828;-8.980;2024-03-08T04:07:17;100662.34;;;7.13;83.80
57412;BME280;43247;52.828;-8.980;2024-03-08T04:08:17;100662.34;;;7.12;83.87
57412;BME280;43247;52.828;-8.980;2024-03-08T04:09:17;100660.03;;;7.13;83.80
57412;BME280;43247;52.828;-8.980;2024-03-08T04:10:18;100653.48;;;7.15;83.71
57412;BME280;43247;52.828;-8.980;2024-03-08T04:11:18;100655.25;;;7.12;83.81
57412;BME280;43247;52.828;-8.980;2024-03-08T04:12:18;100651.32;;;7.14;83.76
57412;BME280;43247;52.828;-8.980;2024-03-08T04:13:19;100649.99;;;7.15;83.74
57412;BME280;43247;52.828;-8.980;2024-03-08T04:14:20;100645.62;;;7.14;83.85
57412;BME280;43247;52.828;-8.980;2024-03-08T04:15:20;100645.96;;;7.14;83.89
57412;BME280;43247;52.828;-8.980;2024-03-08T04:16:20;100644.29;;;7.14;83.90
57412;BME280;43247;52.828;-8.980;2024-03-08T04:17:20;100643.14;;;7.14;83.97
57412;BME280;43247;52.828;-8.980;2024-03-08T04:18:20;100642.62;;;7.15;83.97
57412;BME280;43247;52.828;-8.980;2024-03-08T04:19:20;100643.05;;;7.15;83.94
57412;BME280;43247;52.828;-8.980;2024-03-08T04:20:21;100640.48;;;7.14;84.04
57412;BME280;43247;52.828;-8.980;2024-03-08T04:21:21;100639.29;;;7.14;84.04
57412;BME280;43247;52.828;-8.980;2024-03-08T04:22:22;100642.13;;;7.14;84.07
57412;BME280;43247;52.828;-8.980;2024-03-08T04:23:23;100640.00;;;7.15;84.06
57412;BME280;43247;52.828;-8.980;2024-03-08T04:24:23;100640.41;;;7.16;84.03
57412;BME280;43247;52.828;-8.980;2024-03-08T04:25:23;100634.78;;;7.14;84.11
57412;BME280;43247;52.828;-8.980;2024-03-08T04:26:24;100632.11;;;7.15;84.10
57412;BME280;43247;52.828;-8.980;2024-03-08T04:27:24;100633.06;;;7.13;84.13
57412;BME280;43247;52.828;-8.980;2024-03-08T04:28:24;100629.58;;;7.15;84.10
57412;BME280;43247;52.828;-8.980;2024-03-08T04:29:24;100627.48;;;7.13;84.16
57412;BME280;43247;52.828;-8.980;2024-03-08T04:30:25;100625.03;;;7.16;84.08
57412;BME280;43247;52.828;-8.980;2024-03-08T04:31:26;100627.67;;;7.14;84.11
57412;BME280;43247;52.828;-8.980;2024-03-08T04:32:26;100616.75;;;7.16;84.06
57412;BME280;43247;52.828;-8.980;2024-03-08T04:33:27;100618.35;;;7.15;84.13
57412;BME280;43247;52.828;-8.980;2024-03-08T04:34:27;100617.80;;;7.18;84.20
57412;BME280;43247;52.828;-8.980;2024-03-08T04:35:27;100623.24;;;7.20;84.16
57412;BME280;43247;52.828;-8.980;2024-03-08T04:36:28;100616.52;;;7.19;84.14
57412;BME280;43247;52.828;-8.980;2024-03-08T04:37:28;100615.98;;;7.21;84.08
57412;BME280;43247;52.828;-8.980;2024-03-08T04:38:29;100615.92;;;7.23;84.03
57412;BME280;43247;52.828;-8.980;2024-03-08T04:39:29;100614.26;;;7.22;84.07
57412;BME280;43247;52.828;-8.980;2024-03-08T04:40:30;100614.42;;;7.24;84.00
57412;BME280;43247;52.828;-8.980;2024-03-08T04:41:30;100616.38;;;7.24;83.98
57412;BME280;43247;52.828;-8.980;2024-03-08T04:42:30;100614.39;;;7.25;83.97
57412;BME280;43247;52.828;-8.980;2024-03-08T04:43:30;100612.45;;;7.22;84.08
57412;BME280;43247;52.828;-8.980;2024-03-08T04:44:31;100615.57;;;7.23;84.05
57412;BME280;43247;52.828;-8.980;2024-03-08T04:45:32;100611.23;;;7.21;84.11
57412;BME280;43247;52.828;-8.980;2024-03-08T04:46:33;100607.05;;;7.19;84.17
57412;BME280;43247;52.828;-8.980;2024-03-08T04:47:33;100608.35;;;7.23;84.08
57412;BME280;43247;52.828;-8.980;2024-03-08T04:48:34;100603.52;;;7.22;84.05
57412;BME280;43247;52.828;-8.980;2024-03-08T04:49:34;100602.72;;;7.26;83.95
57412;BME280;43247;52.828;-8.980;2024-03-08T04:50:34;100607.61;;;7.27;83.90
57412;BME280;43247;52.828;-8.980;2024-03-08T04:51:35;100602.66;;;7.27;83.86
57412;BME280;43247;52.828;-8.980;2024-03-08T04:52:35;100601.88;;;7.25;83.91
57412;BME280;43247;52.828;-8.980;2024-03-08T04:53:36;100603.32;;;7.22;84.05
57412;BME280;43247;52.828;-8.980;2024-03-08T04:54:36;100598.38;;;7.24;84.03
57412;BME280;43247;52.828;-8.980;2024-03-08T04:55:37;100593.36;;;7.23;84.08
57412;BME280;43247;52.828;-8.980;2024-03-08T04:56:37;100591.02;;;7.21;84.16
57412;BME280;43247;52.828;-8.980;2024-03-08T04:57:38;100590.01;;;7.21;84.18
57412;BME280;43247;52.828;-8.980;2024-03-08T04:58:38;100591.95;;;7.21;84.20
57412;BME280;43247;52.828;-8.980;2024-03-08T04:59:39;100592.43;;;7.21;84.19
57412;BME280;43247;52.828;-8.980;2024-03-08T05:00:39;100594.85;;;7.18;84.30
57412;BME280;43247;52.828;-8.980;2024-03-08T05:01:40;100594.62;;;7.21;84.24
57412;BME280;43247;52.828;-8.980;2024-03-08T05:02:41;100593.54;;;7.21;84.23
57412;BME280;43247;52.828;-8.980;2024-03-08T05:03:40;100593.19;;;7.21;84.24
57412;BME280;43247;52.828;-8.980;2024-03-08T05:04:41;100597.21;;;7.20;84.24
57412;BME280;43247;52.828;-8.980;2024-03-08T05:05:42;100597.37;;;7.19;84.27
57412;BME280;43247;52.828;-8.980;2024-03-08T05:06:42;100596.96;;;7.17;84.37
57412;BME280;43247;52.828;-8.980;2024-03-08T05:07:42;100595.14;;;7.19;84.31
57412;BME280;43247;52.828;-8.980;2024-03-08T05:08:43;100596.41;;;7.21;84.25
57412;BME280;43247;52.828;-8.980;2024-03-08T05:09:43;100591.33;;;7.18;84.29
57412;BME280;43247;52.828;-8.980;2024-03-08T05:10:43;100596.18;;;7.19;84.25
57412;BME280;43247;52.828;-8.980;2024-03-08T05:11:44;100601.09;;;7.18;84.27
57412;BME280;43247;52.828;-8.980;2024-03-08T05:12:44;100596.06;;;7.17;84.30
57412;BME280;43247;52.828;-8.980;2024-03-08T05:13:44;100598.22;;;7.17;84.23
57412;BME280;43247;52.828;-8.980;2024-03-08T05:14:45;100599.17;;;7.17;84.28
57412;BME280;43247;52.828;-8.980;2024-03-08T05:15:48;100601.04;;;7.19;84.21
57412;BME280;43247;52.828;-8.980;2024-03-08T05:16:46;100597.74;;;7.17;84.23